Time;durP1;ratioP1;P1;durP2;ratioP2;P2;SDS_P1;SDS_P2;PMS_P1;PMS_P2;Temp;Humidity;BMP_temperature;BMP_pressure;BME280_temperature;BME280_humidity;BME280_pressure;Samples;Min_cycle;Max_cycle;Signal;HPM_P1;HPM_P2
2022/05/11 00:01:29;;;;;;;3.72;1.58;;;;;;;16.67;91.52;100564.56;5056444;28;20056;-68
2022/05/11 00:03:56;;;;;;;4.25;2.00;;;;;;;16.60;91.82;100570.06;5065867;28;20761;-68
2022/05/11 00:06:22;;;;;;;4.82;1.95;;;;;;;16.72;91.23;100571.56;5070632;28;20048;-68
2022/05/11 00:08:48;;;;;;;4.40;2.10;;;;;;;16.71;91.13;100575.44;5071880;28;20028;-68
2022/05/11 00:11:14;;;;;;;4.25;1.70;;;;;;;16.63;91.75;100571.19;5068774;28;20036;-68
2022/05/11 00:13:40;;;;;;;4.07;1.98;;;;;;;16.69;91.39;100566.91;5071880;28;20075;-68
2022/05/11 00:16:05;;;;;;;5.32;1.92;;;;;;;16.63;91.89;100565.75;5054136;28;20069;-68
2022/05/11 00:18:31;;;;;;;5.22;2.20;;;;;;;16.62;92.01;100556.06;5067511;28;20413;-68
2022/05/11 00:20:57;;;;;;;4.57;2.08;;;;;;;16.67;92.04;100567.28;5072451;28;20124;-68
2022/05/11 00:23:22;;;;;;;4.22;1.77;;;;;;;16.61;92.48;100558.00;5072149;28;20040;-68
2022/05/11 00:25:48;;;;;;;4.20;2.10;;;;;;;16.65;92.00;100555.25;5071082;28;20504;-68
2022/05/11 00:28:14;;;;;;;5.55;1.80;;;;;;;16.66;91.93;100557.59;5058704;28;20536;-68
2022/05/11 00:30:39;;;;;;;8.30;2.00;;;;;;;16.67;91.90;100552.91;5070778;28;20060;-67
2022/05/11 00:33:06;;;;;;;5.30;2.22;;;;;;;16.70;91.56;100554.84;5051235;28;20055;-68
2022/05/11 00:35:33;;;;;;;5.18;2.35;;;;;;;16.69;91.61;100550.56;5061854;28;20032;-68
2022/05/11 00:38:00;;;;;;;6.30;2.80;;;;;;;16.67;91.98;100550.19;5052977;28;20047;-68
2022/05/11 00:40:26;;;;;;;9.18;2.38;;;;;;;16.62;92.32;100545.19;5071569;28;20451;-68
2022/05/11 00:42:52;;;;;;;4.65;2.00;;;;;;;16.59;92.07;100559.59;5064778;28;20064;-67
2022/05/11 00:45:18;;;;;;;3.10;1.90;;;;;;;16.55;92.86;100548.72;5071412;28;20154;-68
2022/05/11 00:47:48;;;;;;;8.10;2.08;;;;;;;16.50;93.15;100553.81;5071017;28;20674;-69
2022/05/11 00:50:34;;;;;;;6.65;2.30;;;;;;;16.55;92.97;100561.56;5067003;28;20032;-68
2022/05/11 00:53:09;;;;;;;3.90;2.00;;;;;;;16.57;93.02;100559.22;5071648;28;20529;-69
2022/05/11 00:55:40;;;;;;;3.95;1.85;;;;;;;16.53;93.37;100558.47;5063427;28;20508;-68
2022/05/11 00:58:11;;;;;;;4.60;1.57;;;;;;;16.58;92.66;100544.44;5038163;28;20032;-68
2022/05/11 01:00:37;;;;;;;3.53;1.90;;;;;;;16.65;92.31;100545.16;5062892;28;20395;-68
2022/05/11 01:03:15;;;;;;;3.63;1.88;;;;;;;16.62;92.48;100540.53;5066439;28;20120;-68
2022/05/11 01:05:42;;;;;;;5.53;1.90;;;;;;;16.54;92.79;100528.16;5068279;28;20492;-67
2022/05/11 01:08:08;;;;;;;5.68;2.42;;;;;;;16.50;93.18;100545.66;5070068;28;20029;-69
2022/05/11 01:10:34;;;;;;;4.88;2.20;;;;;;;16.49;93.23;100541.38;5059813;28;20138;-69
2022/05/11 01:13:05;;;;;;;2.50;1.98;;;;;;;16.48;93.48;100542.50;5071142;28;20034;-69
2022/05/11 01:15:33;;;;;;;3.28;1.88;;;;;;;16.44;93.87;100539.03;5072686;28;20032;-69
2022/05/11 01:18:00;;;;;;;5.13;1.73;;;;;;;16.47;93.88;100540.97;5053068;28;20052;-69
2022/05/11 01:20:29;;;;;;;4.18;2.38;;;;;;;16.58;93.12;100544.44;5066974;28;20571;-69
2022/05/11 01:23:16;;;;;;;4.85;2.35;;;;;;;16.53;93.36;100539.44;5071025;28;20396;-68
2022/05/11 01:25:41;;;;;;;3.67;1.85;;;;;;;16.48;93.50;100539.78;5051361;28;20044;-69
2022/05/11 01:28:12;;;;;;;4.95;2.13;;;;;;;16.48;93.94;100546.03;5067164;28;20020;-68
2022/05/11 01:30:40;;;;;;;2.88;2.10;;;;;;;16.46;93.61;100542.91;5070775;28;20476;-69
2022/05/11 01:33:07;;;;;;;4.75;2.10;;;;;;;16.43;94.21;100537.50;5070992;28;20417;-68
2022/05/11 01:35:32;;;;;;;2.65;1.80;;;;;;;16.44;94.09;100525.44;5067080;28;20036;-68
2022/05/11 01:38:11;;;;;;;4.20;2.28;;;;;;;16.37;94.97;100530.94;5070109;28;20044;-68
2022/05/11 01:40:37;;;;;;;4.53;1.98;;;;;;;16.41;94.80;100513.44;5071205;28;20043;-69
2022/05/11 01:43:03;;;;;;;4.47;1.83;;;;;;;16.39;94.90;100509.56;5066817;28;20028;-68
2022/05/11 01:45:29;;;;;;;6.15;2.30;;;;;;;16.38;94.82;100500.63;5064596;28;20350;-66
2022/05/11 01:47:56;;;;;;;3.38;2.15;;;;;;;16.34;95.34;100507.28;5061772;28;20132;-69
2022/05/11 01:50:23;;;;;;;5.60;2.38;;;;;;;16.42;94.88;100495.94;5068955;28;20594;-69
2022/05/11 01:52:49;;;;;;;3.38;1.80;;;;;;;16.42;94.98;100493.22;5068251;28;20029;-68
2022/05/11 01:55:15;;;;;;;3.95;2.00;;;;;;;16.41;95.24;100504.50;5067968;28;20074;-68
2022/05/11 01:57:40;;;;;;;3.47;1.65;;;;;;;16.42;95.02;100511.47;5066115;28;20450;-67
2022/05/11 02:00:07;;;;;;;3.47;1.95;;;;;;;16.40;95.15;100508.38;5070149;28;20108;-68
2022/05/11 02:02:37;;;;;;;3.20;1.48;;;;;;;16.51;94.91;100501.75;5069759;28;20075;-68
2022/05/11 02:07:50;;;;;;;5.70;2.00;;;;;;;16.44;95.06;100496.31;5064931;28;20032;-68
2022/05/11 02:10:20;;;;;;;5.43;2.38;;;;;;;16.41;95.13;100488.97;5052768;28;20028;-67
2022/05/11 02:12:45;;;;;;;2.80;1.83;;;;;;;16.49;94.86;100487.00;5065772;28;20115;-68
2022/05/11 02:15:13;;;;;;;3.13;1.70;;;;;;;16.44;95.38;100480.00;5062726;28;20103;-68
2022/05/11 02:17:39;;;;;;;5.40;2.05;;;;;;;16.41;95.63;100490.91;5069693;28;20028;-68
2022/05/11 02:20:05;;;;;;;6.55;2.75;;;;;;;16.39;96.07;100485.09;5069894;28;20036;-68
2022/05/11 02:22:30;;;;;;;3.72;2.10;;;;;;;16.38;96.42;100483.53;5070554;28;20123;-68
2022/05/11 02:24:56;;;;;;;5.95;1.80;;;;;;;16.44;95.94;100484.66;5068277;28;20044;-68
2022/05/11 02:27:21;;;;;;;3.58;1.75;;;;;;;16.43;95.73;100485.84;5051635;28;20123;-68
2022/05/11 02:29:47;;;;;;;4.53;1.85;;;;;;;16.36;96.47;100486.66;5067222;28;20032;-69
2022/05/11 02:32:12;;;;;;;2.65;1.70;;;;;;;16.37;96.38;100485.50;5061808;28;20111;-68
2022/05/11 02:37:21;;;;;;;6.22;2.40;;;;;;;16.38;96.73;100472.66;5066044;28;20041;-68
2022/05/11 02:39:48;;;;;;;4.05;1.92;;;;;;;16.44;96.22;100460.97;5069765;28;20103;-68
2022/05/11 02:42:15;;;;;;;4.88;1.80;;;;;;;16.45;95.77;100459.81;5068156;28;20072;-68
2022/05/11 02:44:41;;;;;;;5.38;1.70;;;;;;;16.39;96.34;100455.19;5065718;28;20028;-68
2022/05/11 02:47:06;;;;;;;3.03;1.80;;;;;;;16.44;95.81;100449.31;5068954;28;20055;-69
2022/05/11 02:49:32;;;;;;;3.90;1.85;;;;;;;16.41;95.98;100450.13;5051630;28;20098;-67
2022/05/11 02:51:58;;;;;;;2.55;1.67;;;;;;;16.36;96.24;100448.59;5066630;28;20074;-68
2022/05/11 02:54:24;;;;;;;3.70;2.08;;;;;;;16.33;96.57;100443.19;5069594;28;20043;-69
2022/05/11 02:56:49;;;;;;;4.85;2.22;;;;;;;16.40;96.11;100445.84;5068917;28;20028;-68
2022/05/11 02:59:15;;;;;;;7.43;2.15;;;;;;;16.35;96.35;100449.78;5069779;28;20620;-68
2022/05/11 03:01:41;;;;;;;4.80;2.00;;;;;;;16.36;96.22;100456.75;5061097;28;20040;-68
2022/05/11 03:04:06;;;;;;;4.63;1.98;;;;;;;16.32;96.60;100449.81;5069313;28;20079;-67
2022/05/11 03:06:32;;;;;;;5.15;2.00;;;;;;;16.30;96.87;100444.75;5051202;28;20043;-68
2022/05/11 03:08:57;;;;;;;6.13;1.92;;;;;;;16.34;95.93;100447.47;5069227;28;20142;-68
2022/05/11 03:11:22;;;;;;;5.13;2.42;;;;;;;16.30;96.73;100447.47;5059744;28;20438;-68
2022/05/11 03:13:48;;;;;;;3.17;1.70;;;;;;;16.28;96.64;100442.44;5070156;28;20063;-68
2022/05/11 03:16:13;;;;;;;4.45;2.13;;;;;;;16.27;97.30;100449.06;5063266;28;20028;-68
2022/05/11 03:18:39;;;;;;;3.13;1.58;;;;;;;16.24;97.43;100446.34;5051025;28;20024;-68
2022/05/11 03:21:04;;;;;;;6.65;2.28;;;;;;;16.23;97.59;100448.31;5069747;28;20044;-68
2022/05/11 03:23:30;;;;;;;6.32;2.33;;;;;;;16.21;97.75;100447.94;5060040;28;20102;-68
2022/05/11 03:25:57;;;;;;;4.60;2.45;;;;;;;16.27;97.26;100443.63;5067674;28;20473;-67
2022/05/11 03:28:22;;;;;;;5.18;1.92;;;;;;;16.28;97.07;100445.16;5068641;28;20035;-68
2022/05/11 03:30:47;;;;;;;4.53;2.05;;;;;;;16.26;97.00;100446.72;5066835;28;20111;-68
2022/05/11 03:35:57;;;;;;;3.58;2.00;;;;;;;16.24;97.17;100451.78;5039378;28;20036;-68
2022/05/11 03:38:22;;;;;;;3.60;2.30;;;;;;;16.21;97.68;100450.66;5057644;28;20032;-68
2022/05/11 03:40:48;;;;;;;5.03;2.13;;;;;;;16.23;97.16;100442.09;5052806;28;20029;-67
2022/05/11 03:43:13;;;;;;;6.07;2.53;;;;;;;16.30;96.61;100441.28;5057741;28;20400;-68
2022/05/11 03:45:39;;;;;;;4.30;2.05;;;;;;;16.33;96.45;100437.75;5058508;28;20072;-68
2022/05/11 03:48:05;;;;;;;2.85;2.00;;;;;;;16.29;96.36;100443.22;5069331;28;20040;-68
2022/05/11 03:50:32;;;;;;;4.72;1.83;;;;;;;16.32;95.73;100445.13;5072741;28;20029;-68
2022/05/11 03:52:58;;;;;;;3.55;2.15;;;;;;;16.26;96.40;100433.91;5072837;28;20035;-69
2022/05/11 03:55:25;;;;;;;6.00;2.53;;;;;;;16.23;96.52;100426.56;5059369;28;20024;-68
2022/05/11 03:57:51;;;;;;;3.20;1.50;;;;;;;16.21;97.27;100419.97;5072073;28;20063;-68
2022/05/11 04:00:20;;;;;;;4.90;1.63;;;;;;;16.21;97.33;100418.03;5068152;28;20118;-68
2022/05/11 04:02:47;;;;;;;5.45;2.20;;;;;;;16.21;97.44;100409.88;5068065;28;20043;-69
2022/05/11 04:05:13;;;;;;;5.40;2.45;;;;;;;16.20;97.80;100404.88;5071661;28;20055;-69
2022/05/11 04:07:40;;;;;;;3.38;1.88;;;;;;;16.19;97.83;100414.94;5033055;28;20047;-69
2022/05/11 04:10:07;;;;;;;6.20;2.78;;;;;;;16.23;97.51;100409.50;5069889;28;20037;-70
2022/05/11 04:12:34;;;;;;;5.38;2.55;;;;;;;16.25;97.04;100402.50;5062935;28;20032;-69
2022/05/11 04:14:59;;;;;;;5.40;2.40;;;;;;;16.25;97.70;100397.06;5034087;28;20041;-69
2022/05/11 04:17:25;;;;;;;4.25;2.20;;;;;;;16.24;96.96;100387.34;5063675;28;20116;-69
2022/05/11 04:19:51;;;;;;;5.18;1.90;;;;;;;16.25;97.46;100388.13;5068348;28;20042;-69
2022/05/11 04:22:16;;;;;;;5.50;2.20;;;;;;;16.23;97.88;100407.56;5068541;28;20032;-69
2022/05/11 04:24:42;;;;;;;6.18;2.30;;;;;;;16.32;97.68;100403.63;5067147;28;20081;-70
2022/05/11 04:27:07;;;;;;;5.57;2.13;;;;;;;16.42;96.44;100405.47;5071541;28;20068;-69
2022/05/11 04:29:35;;;;;;;6.18;2.90;;;;;;;16.38;96.47;100405.50;5053883;28;20033;-70
2022/05/11 04:32:01;;;;;;;3.85;2.67;;;;;;;16.37;96.74;100401.25;5069065;28;20416;-70
2022/05/11 04:34:26;;;;;;;5.20;2.58;;;;;;;16.32;97.21;100390.03;5053897;28;20060;-69
2022/05/11 04:36:52;;;;;;;6.40;2.17;;;;;;;16.35;97.52;100391.94;5062814;28;20444;-69
2022/05/11 04:39:17;;;;;;;5.93;2.85;;;;;;;16.31;97.89;100397.41;5065011;28;20035;-69
2022/05/11 04:41:42;;;;;;;5.53;2.80;;;;;;;16.36;98.13;100390.75;5071815;28;20421;-69
2022/05/11 04:44:08;;;;;;;3.83;2.13;;;;;;;16.37;97.92;100386.88;5070083;28;20577;-69
2022/05/11 04:46:37;;;;;;;5.75;2.50;;;;;;;16.39;98.40;100388.03;5062568;28;20047;-68
2022/05/11 04:49:23;;;;;;;4.38;2.05;;;;;;;16.40;98.54;100381.41;5064876;28;20107;-68
2022/05/11 04:52:00;;;;;;;5.82;2.00;;;;;;;16.52;97.84;100388.31;5067737;28;20048;-68
2022/05/11 04:54:26;;;;;;;3.90;2.08;;;;;;;16.47;98.30;100372.44;5048736;28;20147;-69
2022/05/11 04:56:51;;;;;;;8.20;2.92;;;;;;;16.51;97.91;100381.34;5070588;28;20458;-69
2022/05/11 04:59:16;;;;;;;4.57;2.28;;;;;;;16.52;98.00;100380.16;5061146;28;20051;-68
2022/05/11 05:01:42;;;;;;;5.18;2.88;;;;;;;16.53;97.80;100379.75;5059127;28;20052;-69
2022/05/11 05:04:07;;;;;;;5.78;2.60;;;;;;;16.57;97.52;100379.75;5044590;28;20035;-69
2022/05/11 05:06:33;;;;;;;5.80;2.20;;;;;;;16.53;97.88;100385.19;5066229;28;20393;-69
2022/05/11 05:09:04;;;;;;;8.18;2.92;;;;;;;16.58;98.17;100378.56;5059606;28;20401;-68
2022/05/11 05:11:30;;;;;;;6.03;2.70;;;;;;;16.54;98.03;100381.31;5067461;28;20034;-70
2022/05/11 05:13:56;;;;;;;6.80;2.30;;;;;;;16.57;98.54;100380.50;5068580;28;20125;-69
2022/05/11 05:16:22;;;;;;;5.65;2.33;;;;;;;16.59;98.32;100380.13;5062679;28;20074;-69
2022/05/11 05:18:47;;;;;;;4.78;2.35;;;;;;;16.62;98.36;100382.03;5056815;28;20125;-68
2022/05/11 05:21:13;;;;;;;6.43;2.05;;;;;;;16.67;98.36;100384.31;5057599;28;20082;-69
2022/05/11 05:23:39;;;;;;;6.85;2.58;;;;;;;16.69;98.38;100381.97;5054686;28;20052;-68
2022/05/11 05:26:04;;;;;;;7.05;2.53;;;;;;;16.64;98.78;100382.41;5061198;28;20158;-68
2022/05/11 05:31:18;;;;;;;4.13;1.85;;;;;;;16.70;98.56;100367.19;5039254;28;20040;-69
2022/05/11 05:33:44;;;;;;;8.70;2.50;;;;;;;16.69;98.94;100380.03;5059905;28;20048;-68
2022/05/11 05:36:10;;;;;;;9.35;2.15;;;;;;;16.69;99.30;100369.13;5067689;28;20401;-68
2022/05/11 05:38:38;;;;;;;5.82;2.50;;;;;;;16.73;99.48;100372.59;5069262;28;20077;-69
2022/05/11 05:41:08;;;;;;;7.60;2.58;;;;;;;16.77;99.07;100365.19;5068682;28;20032;-68
2022/05/11 05:43:33;;;;;;;4.70;2.25;;;;;;;16.81;98.83;100360.47;5065076;28;20059;-69
2022/05/11 05:46:00;;;;;;;5.60;2.42;;;;;;;16.84;98.43;100369.78;5069113;28;20655;-68
2022/05/11 05:48:25;;;;;;;5.05;2.17;;;;;;;16.93;97.05;100365.41;5064122;28;20135;-69
2022/05/11 05:50:51;;;;;;;6.05;1.83;;;;;;;16.88;97.46;100363.13;5051107;28;20502;-68
2022/05/11 05:53:21;;;;;;;4.45;2.03;;;;;;;16.87;97.38;100374.41;5050397;28;20163;-69
2022/05/11 05:55:49;;;;;;;5.90;2.13;;;;;;;16.81;98.43;100370.59;5062803;28;20049;-68
2022/05/11 05:58:16;;;;;;;3.47;2.15;;;;;;;16.86;98.30;100372.88;5070196;28;20089;-69
2022/05/11 06:00:43;;;;;;;4.30;2.35;;;;;;;16.89;97.71;100369.34;5067254;28;20124;-69
2022/05/11 06:03:09;;;;;;;7.53;1.90;;;;;;;16.89;97.87;100375.56;5066327;28;20040;-69
2022/05/11 06:05:34;;;;;;;4.43;2.22;;;;;;;16.92;97.63;100363.09;5065339;28;20485;-69
2022/05/11 06:08:00;;;;;;;4.82;2.70;;;;;;;16.91;97.47;100377.88;5066885;28;20051;-69
2022/05/11 06:10:26;;;;;;;4.57;1.80;;;;;;;16.91;97.66;100367.00;5062370;28;20432;-69
2022/05/11 06:12:52;;;;;;;5.55;2.40;;;;;;;16.96;97.58;100375.47;5065573;28;20060;-68
2022/05/11 06:15:18;;;;;;;8.30;2.65;;;;;;;17.01;97.08;100360.66;5056352;28;20119;-69
2022/05/11 06:17:43;;;;;;;4.45;1.83;;;;;;;16.96;97.68;100372.75;5064293;28;20436;-69
2022/05/11 06:20:09;;;;;;;6.28;2.67;;;;;;;17.06;97.60;100369.16;5061104;28;20467;-68
2022/05/11 06:22:36;;;;;;;6.97;2.60;;;;;;;17.11;97.30;100365.22;5060157;28;20033;-69
2022/05/11 06:25:02;;;;;;;5.30;2.53;;;;;;;17.07;98.49;100364.50;5058517;28;20116;-68
2022/05/11 06:27:29;;;;;;;8.02;3.45;;;;;;;17.06;98.12;100350.13;5035315;28;20047;-69
2022/05/11 06:30:00;;;;;;;6.03;2.75;;;;;;;17.03;98.76;100358.31;5069626;28;20040;-68
2022/05/11 06:32:26;;;;;;;5.88;2.78;;;;;;;17.03;99.32;100350.91;5063498;28;20043;-69
2022/05/11 06:34:53;;;;;;;5.32;2.47;;;;;;;17.00;99.12;100354.44;5055611;28;20386;-68
2022/05/11 06:37:23;;;;;;;6.95;3.15;;;;;;;17.07;99.07;100357.09;5065694;28;20059;-68
2022/05/11 06:39:49;;;;;;;5.57;2.97;;;;;;;17.01;98.83;100350.53;5069275;28;20032;-68
2022/05/11 06:42:15;;;;;;;5.55;2.67;;;;;;;17.02;99.31;100343.16;5063577;28;20050;-68
2022/05/11 06:44:40;;;;;;;6.20;3.17;;;;;;;17.07;98.94;100338.03;5057718;28;20044;-68
2022/05/11 06:47:06;;;;;;;6.72;2.40;;;;;;;17.04;98.51;100333.41;5063021;28;20048;-68
2022/05/11 06:49:32;;;;;;;4.32;2.80;;;;;;;17.06;99.01;100338.44;5068043;28;20040;-68
2022/05/11 06:51:58;;;;;;;4.45;2.25;;;;;;;17.06;99.24;100344.66;5038706;28;20029;-68
2022/05/11 06:59:57;;;;;;;7.68;2.35;;;;;;;17.20;99.25;100346.47;5053271;28;20049;-69
2022/05/11 07:02:23;;;;;;;5.28;2.83;;;;;;;17.22;98.51;100349.53;5061831;28;20040;-68
2022/05/11 07:04:49;;;;;;;7.88;2.35;;;;;;;17.23;98.27;100340.19;5065993;28;20443;-69
2022/05/11 07:07:15;;;;;;;5.57;2.78;;;;;;;17.24;98.83;100341.75;5068973;28;20024;-69
2022/05/11 07:09:42;;;;;;;5.18;2.38;;;;;;;17.31;98.88;100336.22;5064841;28;20051;-69
2022/05/11 07:12:17;;;;;;;4.57;2.45;;;;;;;17.36;97.99;100335.78;5066826;28;20463;-69
2022/05/11 07:14:44;;;;;;;4.53;2.63;;;;;;;17.43;97.89;100343.06;5064293;28;20032;-69
2022/05/11 07:17:10;;;;;;;5.05;2.40;;;;;;;17.44;97.76;100344.63;5059442;28;20481;-69
2022/05/11 07:19:40;;;;;;;6.93;3.03;;;;;;;17.46;97.39;100348.47;5059779;28;20024;-69
2022/05/11 07:22:06;;;;;;;6.13;2.43;;;;;;;17.43;97.83;100348.50;5065009;28;20448;-69
2022/05/11 07:24:31;;;;;;;5.30;2.28;;;;;;;17.43;97.70;100348.50;5065828;28;20377;-69
2022/05/11 07:26:56;;;;;;;6.13;2.47;;;;;;;17.51;97.40;100347.28;5071953;28;20040;-69
2022/05/11 07:29:22;;;;;;;4.20;2.13;;;;;;;17.47;97.09;100330.97;5051158;28;20040;-69
2022/05/11 07:31:48;;;;;;;4.35;2.10;;;;;;;17.52;97.15;100335.97;5060298;28;20067;-69
2022/05/11 07:34:13;;;;;;;6.15;2.75;;;;;;;17.63;97.30;100342.06;5072633;28;20061;-69
2022/05/11 07:36:39;;;;;;;4.78;2.47;;;;;;;17.67;96.70;100344.72;5068649;28;20028;-69
2022/05/11 07:39:05;;;;;;;4.78;2.05;;;;;;;17.72;96.83;100334.16;5059606;28;20031;-69
2022/05/11 07:41:31;;;;;;;4.25;2.22;;;;;;;17.73;96.25;100334.94;5066493;28;20111;-69
2022/05/11 07:43:57;;;;;;;4.95;2.28;;;;;;;17.73;96.35;100335.66;5066246;28;20528;-69
2022/05/11 07:46:25;;;;;;;4.50;2.08;;;;;;;17.78;95.86;100326.28;5067332;28;20044;-69
2022/05/11 07:48:51;;;;;;;3.95;1.92;;;;;;;17.77;95.83;100336.41;5071380;28;20028;-69
2022/05/11 07:51:16;;;;;;;6.57;2.05;;;;;;;17.75;96.02;100327.84;5064425;28;20546;-69
2022/05/11 07:53:44;;;;;;;3.75;1.77;;;;;;;17.80;95.60;100335.59;5064951;28;20047;-69
2022/05/11 08:01:38;;;;;;;4.72;2.05;;;;;;;17.77;95.27;100335.63;5063062;28;20496;-69
2022/05/11 08:04:03;;;;;;;4.95;2.65;;;;;;;17.71;95.41;100335.31;5060675;28;20036;-69
2022/05/11 08:06:29;;;;;;;2.47;1.65;;;;;;;17.63;95.84;100328.44;5064602;28;20456;-70
2022/05/11 08:08:54;;;;;;;4.97;2.20;;;;;;;17.62;95.92;100337.78;5071091;28;20036;-69
2022/05/11 08:11:19;;;;;;;3.72;1.95;;;;;;;17.63;96.19;100333.88;5071797;28;20047;-70
2022/05/11 08:13:45;;;;;;;4.43;2.10;;;;;;;17.72;95.87;100325.19;5064909;28;20147;-69
2022/05/11 08:16:10;;;;;;;4.82;2.13;;;;;;;17.77;95.12;100322.00;5062653;28;20388;-69
2022/05/11 08:18:36;;;;;;;6.15;2.17;;;;;;;17.72;95.71;100325.97;5061144;28;20463;-69
2022/05/11 08:21:01;;;;;;;4.25;2.08;;;;;;;17.74;95.63;100315.44;5056938;28;20495;-69
2022/05/11 08:23:28;;;;;;;3.80;2.08;;;;;;;17.74;96.13;100315.44;5039238;28;20064;-69
2022/05/11 08:25:57;;;;;;;5.65;2.35;;;;;;;17.78;96.19;100324.34;5063847;28;20048;-69
2022/05/11 08:28:24;;;;;;;3.15;2.17;;;;;;;17.85;96.19;100305.16;5049238;28;20035;-69
2022/05/11 08:33:38;;;;;;;5.25;1.80;;;;;;;18.01;95.43;100302.56;5052921;28;20036;-68
2022/05/11 08:36:09;;;;;;;3.85;1.60;;;;;;;18.14;94.67;100302.75;5068644;28;20424;-69
2022/05/11 08:38:39;;;;;;;7.13;2.08;;;;;;;18.08;95.30;100309.09;5064558;28;20047;-69
2022/05/11 08:41:26;;;;;;;3.83;1.90;;;;;;;18.16;95.03;100297.66;5068033;28;20079;-68
2022/05/11 08:43:54;;;;;;;4.22;2.15;;;;;;;18.25;95.41;100294.41;5066593;28;20101;-68
2022/05/11 08:46:43;;;;;;;4.25;2.28;;;;;;;18.46;95.11;100291.34;5052535;28;20033;-69
2022/05/11 08:49:17;;;;;;;3.50;1.80;;;;;;;18.75;93.63;100292.34;5051363;28;20102;-69
2022/05/11 08:51:52;;;;;;;2.85;1.40;;;;;;;18.81;93.39;100285.97;5070528;28;20090;-69
2022/05/11 08:54:28;;;;;;;4.35;2.22;;;;;;;18.95;91.76;100295.84;5061585;28;20088;-69
2022/05/11 08:56:55;;;;;;;3.55;1.70;;;;;;;19.03;92.13;100299.97;5057386;28;20048;-69
2022/05/11 08:59:25;;;;;;;6.68;1.65;;;;;;;19.14;90.75;100297.06;5060376;28;20022;-69
2022/05/11 09:01:55;;;;;;;2.50;1.52;;;;;;;19.20;88.70;100289.91;5057219;28;20044;-69
2022/05/11 09:04:32;;;;;;;2.13;1.08;;;;;;;19.15;87.88;100293.88;5058612;28;20037;-69
2022/05/11 09:06:58;;;;;;;1.92;1.17;;;;;;;19.02;88.23;100301.19;5052806;28;20504;-69
2022/05/11 09:09:24;;;;;;;3.85;1.60;;;;;;;18.99;85.75;100298.53;5068413;28;20036;-69
2022/05/11 09:11:52;;;;;;;3.20;1.35;;;;;;;18.87;86.79;100287.03;5052785;28;20122;-68
2022/05/11 09:14:25;;;;;;;3.17;1.52;;;;;;;18.80;87.26;100292.63;5049712;28;20055;-69
2022/05/11 09:16:51;;;;;;;5.18;1.85;;;;;;;18.71;87.53;100295.16;5069353;28;20032;-68
2022/05/11 09:19:23;;;;;;;2.60;1.55;;;;;;;18.66;88.29;100284.72;5060107;28;20036;-69
2022/05/11 09:21:54;;;;;;;2.78;1.45;;;;;;;18.84;87.70;100279.69;5050241;28;20050;-69
2022/05/11 09:24:21;;;;;;;3.17;1.40;;;;;;;18.87;86.69;100289.00;5059646;28;20039;-69
2022/05/11 09:27:01;;;;;;;2.28;1.42;;;;;;;18.94;87.02;100277.94;5057634;28;20035;-69
2022/05/11 09:29:35;;;;;;;3.35;1.33;;;;;;;19.03;86.46;100283.59;5068749;28;20116;-69
2022/05/11 09:32:23;;;;;;;3.63;1.50;;;;;;;19.09;86.49;100276.47;5067369;28;20036;-69
2022/05/11 09:34:48;;;;;;;3.40;1.77;;;;;;;19.24;85.80;100258.59;5066461;28;20455;-69
2022/05/11 09:37:26;;;;;;;4.05;1.98;;;;;;;19.41;85.50;100262.94;5068825;28;20028;-70
2022/05/11 09:40:22;;;;;;;3.50;1.45;;;;;;;19.55;85.16;100270.81;5067911;28;20086;-70
2022/05/11 09:42:53;;;;;;;1.92;1.20;;;;;;;19.69;85.08;100272.44;5069504;28;20024;-69
2022/05/11 09:45:45;;;;;;;4.65;1.40;;;;;;;19.90;83.33;100269.22;5067266;28;20044;-69
2022/05/11 09:48:12;;;;;;;2.03;1.27;;;;;;;20.02;82.32;100260.31;5060571;28;20044;-69
2022/05/11 09:50:41;;;;;;;2.30;1.20;;;;;;;20.15;81.39;100260.41;5067709;28;20401;-69
2022/05/11 09:53:45;;;;;;;2.40;1.35;;;;;;;20.25;80.22;100262.13;5070826;28;20031;-69
2022/05/11 09:59:37;;;;;;;1.95;1.05;;;;;;;20.32;78.93;100265.47;5001663;28;20054;-69
2022/05/11 10:02:17;;;;;;;1.85;1.05;;;;;;;20.36;78.90;100254.44;5027828;28;20063;-69
2022/05/11 10:04:55;;;;;;;3.38;1.17;;;;;;;20.49;75.83;100252.50;5028407;28;20079;-70
2022/05/11 10:07:23;;;;;;;1.10;0.77;;;;;;;20.45;75.46;100249.09;5009521;28;20602;-69
2022/05/11 10:10:10;;;;;;;1.42;1.00;;;;;;;20.38;74.96;100265.72;5028487;28;20057;-70
2022/05/11 10:12:39;;;;;;;1.05;0.70;;;;;;;20.34;74.49;100257.56;5028716;28;20029;-70
2022/05/11 10:24:14;;;;;;;2.53;1.20;;;;;;;20.49;71.85;100258.75;5022512;28;20445;-70
2022/05/11 10:27:08;;;;;;;2.80;1.10;;;;;;;20.52;72.45;100249.66;5011300;28;20723;-70
2022/05/11 10:29:45;;;;;;;1.08;0.80;;;;;;;20.71;72.17;100245.25;5009094;28;20049;-70
2022/05/11 10:32:16;;;;;;;1.33;0.88;;;;;;;20.81;71.37;100240.69;5027853;28;20387;-70
2022/05/11 10:34:52;;;;;;;2.55;0.63;;;;;;;20.96;71.14;100237.13;5028225;28;20045;-70
2022/05/11 10:37:40;;;;;;;2.25;1.05;;;;;;;21.21;68.87;100233.66;5059388;28;20417;-70
2022/05/11 10:40:23;;;;;;;0.85;0.60;;;;;;;21.31;67.94;100233.34;5050592;28;20813;-70
2022/05/11 10:43:04;;;;;;;1.30;0.88;;;;;;;21.43;68.41;100229.84;5036927;28;20366;-70
2022/05/11 10:45:39;;;;;;;2.25;0.70;;;;;;;21.55;69.23;100231.81;5071015;28;20051;-70
2022/05/11 10:48:15;;;;;;;1.75;0.90;;;;;;;21.67;69.27;100227.53;5069727;28;20116;-70
2022/05/11 10:51:04;;;;;;;2.10;1.00;;;;;;;21.71;68.71;100227.41;5061613;28;20433;-70
2022/05/11 10:53:32;;;;;;;0.98;0.70;;;;;;;21.66;68.31;100231.47;5069937;28;20111;-70
2022/05/11 10:55:58;;;;;;;1.08;0.73;;;;;;;21.83;67.08;100229.41;5070404;28;20040;-70
2022/05/11 10:58:42;;;;;;;1.70;0.90;;;;;;;21.89;66.54;100233.13;5071784;28;20043;-70
2022/05/11 11:01:07;;;;;;;1.17;0.70;;;;;;;22.05;66.99;100238.44;5071996;28;20094;-70
2022/05/11 11:03:53;;;;;;;6.43;0.90;;;;;;;22.08;65.43;100232.88;5074128;28;20493;-70
2022/05/11 11:09:20;;;;;;;;;;;;;;;22.19;65.54;100225.03;5069910;28;20021;-70
2022/05/11 11:12:19;;;;;;;1.58;0.80;;;;;;;22.46;66.03;100232.72;5073527;28;20266;-70
2022/05/11 11:14:50;;;;;;;1.83;0.50;;;;;;;22.83;63.05;100231.03;5070588;28;20143;-70
2022/05/11 11:17:19;;;;;;;1.75;0.93;;;;;;;22.96;61.14;100227.00;5072906;28;20374;-70
2022/05/11 11:19:49;;;;;;;1.92;0.82;;;;;;;23.00;61.01;100226.84;5073446;28;20515;-70
2022/05/11 11:22:15;;;;;;;1.50;0.77;;;;;;;23.24;59.99;100223.19;5051608;28;20029;-70
2022/05/11 11:24:43;;;;;;;1.38;0.65;;;;;;;23.44;59.75;100222.06;5073272;28;20377;-70
2022/05/11 11:27:09;;;;;;;3.47;0.93;;;;;;;23.57;57.61;100219.97;5071902;28;20036;-70
2022/05/11 11:30:29;;;;;;;1.33;0.82;;;;;;;23.69;58.45;100211.56;5069255;28;20035;-70
2022/05/11 11:33:15;;;;;;;0.90;0.55;;;;;;;23.97;57.70;100199.41;4981287;28;20149;-70
2022/05/11 11:36:02;;;;;;;0.63;0.57;;;;;;;24.16;56.96;100189.97;5056743;28;20056;-70
2022/05/11 11:38:44;;;;;;;0.77;0.52;;;;;;;24.41;56.26;100205.41;5068795;28;20539;-70
2022/05/11 11:41:23;;;;;;;4.53;1.92;;;;;;;24.30;56.43;100193.34;5069853;28;20536;-70
2022/05/11 11:44:04;;;;;;;0.90;0.55;;;;;;;24.16;56.10;100195.47;5072990;28;20032;-70
2022/05/11 11:46:38;;;;;;;2.33;1.13;;;;;;;24.04;55.52;100196.38;5068727;28;20039;-70
2022/05/11 11:49:19;;;;;;;1.60;0.75;;;;;;;24.02;56.40;100187.06;5072431;28;20107;-70
2022/05/11 11:51:50;;;;;;;3.97;0.60;;;;;;;24.01;56.28;100182.75;5059830;28;20123;-70
2022/05/11 11:54:36;;;;;;;0.60;0.60;;;;;;;24.12;56.44;100178.34;5072728;28;20036;-69
2022/05/11 11:57:03;;;;;;;1.10;0.70;;;;;;;24.12;55.45;100183.84;5040910;28;20113;-69
2022/05/11 11:59:28;;;;;;;1.33;0.70;;;;;;;24.27;56.17;100175.75;5069239;28;20043;-69
2022/05/11 12:02:14;;;;;;;0.85;0.60;;;;;;;24.44;55.73;100181.72;5061448;28;20040;-69
2022/05/11 12:04:57;;;;;;;0.90;0.60;;;;;;;24.51;56.63;100179.41;5069901;28;20184;-68
2022/05/11 12:15:45;;;;;;;3.45;0.95;;;;;;;24.70;56.01;100153.34;5068781;28;20548;-68
2022/05/11 12:18:26;;;;;;;2.10;0.60;;;;;;;24.79;54.59;100164.38;5063821;28;20142;-68
2022/05/11 12:20:53;;;;;;;1.40;0.68;;;;;;;24.83;54.08;100155.94;5069350;28;20154;-70
2022/05/11 12:23:22;;;;;;;1.20;0.65;;;;;;;24.79;52.28;100149.84;5053523;28;20039;-68